Darstellungsparameter: Aktuell verwendete Einstellungen:
Skalierung der Graphiken ... ?
xyx+y,   Skalierungsfaktor:      Skalierung: Modus: x, Faktor: 1
Darstellungszeitraum ... ?
Vom - - bis: - -   Zeitraum: 31.07.2014 - 30.07.2015
Min/Max/Avg-Anzeige ... ?
Zeige MMA aktuell
Zeige MMA Monat
Zeige MMA alles
Zeige --A aktuell
Zeige --A Monat
Zeige --A alles
Keine MMA-Anzeige
MMA:
Keine MMA-Graphiken
MMA-Basis: 31.07.2014 - 30.07.2015
Quicknavigation für Darstellung... ?
Tage:      1T, 2T, 3T, 5T -1T -2T -3T -5T +1T +2T +3T +5T
Wochen: 1W, 2W, 3W -1W -2W -3W +1W +2W +3W
Monate: 1M, 3M, 6M -1M -3M -6M +1M +3M +6M
Jahre:    1J, 3J, 5J, 10J -1J -3J -5J -10J +1J +3J +5J +10J
Nutze für die Darstellung ... ?
Originaldaten oder ...
Mittelwerte Minima Maxima auf...
Stundenbasis Tagesbasis Wochenbasis
Monatsbasis Jahresbasis      Datenbasis: Mittelwerte auf Tagesbasis
Darstellen als:
Statistik (Auto) Statistik J:M      Darstellung:
Zur Graphik,    zurück zur Übersicht aller Sensoren.
 
Tabellarische Datenbersicht: ?
 
Sensor: Nr:Datum:Temp:Abs-Feuchte:Windchill:Wind:
Aussen-T/F 1 31-07-2014 00:00:00 20.20645 C 13.48 g/m*3 20.21 C 1.73513 km/h
2 01-08-2014 00:00:00 20.08438 C 14.19 g/m*3 20.08 C 0.76042 km/h
3 02-08-2014 00:00:00 20.10868 C 14.75 g/m*3 20.11 C 0.96944 km/h
4 03-08-2014 00:00:00 21.3566 C 15.2 g/m*3 21.36 C 2.01632 km/h
5 04-08-2014 00:00:00 19.00347 C 14.11 g/m*3 19 C 2.36493 km/h
6 05-08-2014 00:00:00 18.77049 C 13.19 g/m*3 18.77 C 1.79063 km/h
7 06-08-2014 00:00:00 17.59618 C 12.66 g/m*3 17.6 C 1.78924 km/h
8 07-08-2014 00:00:00 18.9934 C 13.98 g/m*3 18.99 C 1.84549 km/h
9 08-08-2014 00:00:00 18.87604 C 14.49 g/m*3 18.88 C 1.41354 km/h
10 09-08-2014 00:00:00 20.16771 C 14.07 g/m*3 20.17 C 6.40486 km/h
11 10-08-2014 00:00:00 19.0125 C 14.68 g/m*3 19.01 C 1.77639 km/h
12 11-08-2014 00:00:00 17.0066 C 11.73 g/m*3 17.01 C 5.37257 km/h
13 12-08-2014 00:00:00 17.62431 C 10.84 g/m*3 17.62 C 7.26389 km/h
14 13-08-2014 00:00:00 15.97674 C 12.2 g/m*3 15.98 C 0.91528 km/h
15 14-08-2014 00:00:00 16.15426 C 11.6 g/m*3 16.15 C 5.25355 km/h
16 15-08-2014 00:00:00 14.48638 C 11.45 g/m*3 14.49 C 1.15591 km/h
17 16-08-2014 00:00:00 15.13439 C 11.56 g/m*3 15.13 C 2.57053 km/h
18 17-08-2014 00:00:00 16.14062 C 10.65 g/m*3 16.14 C 6.93576 km/h
19 18-08-2014 00:00:00 16.30417 C 10.34 g/m*3 16.3 C 8.74306 km/h
20 19-08-2014 00:00:00 13.79653 C 9.94 g/m*3 13.8 C 5.50104 km/h
21 20-08-2014 00:00:00 12.68681 C 9.24 g/m*3 12.69 C 1.13785 km/h
22 21-08-2014 00:00:00 12.84653 C 9.32 g/m*3 12.85 C 1.84132 km/h
23 22-08-2014 00:00:00 14.04062 C 9.49 g/m*3 14.04 C 3.62569 km/h
24 23-08-2014 00:00:00 14.26875 C 10.22 g/m*3 14.27 C 4.75104 km/h
25 24-08-2014 00:00:00 11.58993 C 9.69 g/m*3 11.59 C 3.00938 km/h
Sensor: Nr:Datum:Temp:Abs-Feuchte:Windchill:Wind:
Aussen-T/F 26 25-08-2014 00:00:00 13.23854 C 10.79 g/m*3 13.24 C 1.33646 km/h
27 26-08-2014 00:00:00 14.79479 C 12.27 g/m*3 14.79 C 0.90139 km/h
28 27-08-2014 00:00:00 15.38741 C 11.99 g/m*3 15.39 C 0.95647 km/h
29 28-08-2014 00:00:00 15.84062 C 12.56 g/m*3 15.84 C 0.51181 km/h
30 29-08-2014 00:00:00 18.05278 C 13.67 g/m*3 18.05 C 2.29792 km/h
31 30-08-2014 00:00:00 16.23299 C 12.57 g/m*3 16.23 C 2.61076 km/h
32 31-08-2014 00:00:00 14.70069 C 11.69 g/m*3 14.7 C 1.51493 km/h
33 01-09-2014 00:00:00 14.60556 C 11.45 g/m*3 14.61 C 1.21285 km/h
34 02-09-2014 00:00:00 14.6191 C 11.36 g/m*3 14.62 C 1.05625 km/h
35 03-09-2014 00:00:00 15.03299 C 11.56 g/m*3 15.03 C 1.81111 km/h
36 04-09-2014 00:00:00 16.74028 C 12.78 g/m*3 16.74 C 1.52813 km/h
37 05-09-2014 00:00:00 18.15903 C 14.17 g/m*3 18.16 C 0 km/h
38 06-09-2014 00:00:00 17.4559 C 13.79 g/m*3 17.46 C 0.1 km/h
39 07-09-2014 00:00:00 18.08889 C 13.61 g/m*3 18.09 C 1.75211 km/h
40 08-09-2014 00:00:00 17.83403 C 12.79 g/m*3 17.83 C 1.96528 km/h
41 09-09-2014 00:00:00 15.64965 C 10.86 g/m*3 15.65 C 2.73125 km/h
42 10-09-2014 00:00:00 14.27882 C 10.23 g/m*3 14.28 C 3.28021 km/h
43 11-09-2014 00:00:00 14.96111 C 10.63 g/m*3 14.96 C 3.87813 km/h
44 12-09-2014 00:00:00 14.12153 C 10.3 g/m*3 14.12 C 4.47813 km/h
45 13-09-2014 00:00:00 16.12118 C 12.18 g/m*3 16.12 C 2.54861 km/h
46 14-09-2014 00:00:00 16.65196 C 12.48 g/m*3 16.65 C 0.83701 km/h
47 15-09-2014 00:00:00 16.079 C 12.53 g/m*3 16.08 C 1.20427 km/h
48 16-09-2014 00:00:00 16.93264 C 12.99 g/m*3 16.93 C 1.58993 km/h
49 17-09-2014 00:00:00 16.05139 C 12.6 g/m*3 16.05 C 0.34549 km/h
50 18-09-2014 00:00:00 17.4875 C 14.25 g/m*3 17.49 C 0.12222 km/h
Sensor: Nr:Datum:Temp:Abs-Feuchte:Windchill:Wind:
Aussen-T/F 51 19-09-2014 00:00:00 18.38993 C 14.98 g/m*3 18.39 C 0.84271 km/h
52 20-09-2014 00:00:00 17.14931 C 14.08 g/m*3 17.15 C 0.35035 km/h
53 21-09-2014 00:00:00 15.46146 C 12.57 g/m*3 15.46 C 2.04618 km/h
54 22-09-2014 00:00:00 12.53194 C 9.51 g/m*3 12.53 C 4.61667 km/h
55 23-09-2014 00:00:00 9.91146 C 8.49 g/m*3 9.91 C 0.53438 km/h
56 24-09-2014 00:00:00 11.10451 C 9.05 g/m*3 11.1 C 0.55208 km/h
57 25-09-2014 00:00:00 13.67917 C 10.13 g/m*3 13.68 C 2.68299 km/h
58 26-09-2014 00:00:00 14.24896 C 10.9 g/m*3 14.25 C 2.4566 km/h
59 27-09-2014 00:00:00 15.59965 C 12.14 g/m*3 15.6 C 0.13924 km/h
60 28-09-2014 00:00:00 14.22743 C 11.63 g/m*3 14.23 C 0.33889 km/h
61 29-09-2014 00:00:00 15.41493 C 12.47 g/m*3 15.41 C 0.34479 km/h
62 30-09-2014 00:00:00 16.83438 C 13.35 g/m*3 16.83 C 1.14063 km/h
63 01-10-2014 00:00:00 15.87778 C 12.8 g/m*3 15.88 C 0 km/h
64 02-10-2014 00:00:00 14.35799 C 11.8 g/m*3 14.36 C 0 km/h
65 03-10-2014 00:00:00 13.73785 C 11.32 g/m*3 13.74 C 0.07257 km/h
66 04-10-2014 00:00:00 12.86979 C 10.48 g/m*3 12.87 C 0.20069 km/h
67 05-10-2014 00:00:00 12.94097 C 10.63 g/m*3 12.94 C 1.02431 km/h
68 06-10-2014 00:00:00 14.3 C 11.1 g/m*3 14.3 C 2.03299 km/h
69 07-10-2014 00:00:00 13.71806 C 10.94 g/m*3 13.72 C 4.47847 km/h
70 08-10-2014 00:00:00 13.3 C 11.28 g/m*3 13.3 C 0.23817 km/h
71 09-10-2014 00:00:00 15.17173 C 12.66 g/m*3 15.17 C 1.5644 km/h
72 10-10-2014 00:00:00 14.20902 C 11.78 g/m*3 14.21 C 0.24471 km/h
73 11-10-2014 00:00:00 14.77847 C 12.15 g/m*3 14.78 C 0.47778 km/h
74 12-10-2014 00:00:00 12.52744 C 10.53 g/m*3 12.53 C 1.45379 km/h
75 13-10-2014 00:00:00 14.72014 C 12.2 g/m*3 14.72 C 0.59097 km/h
Sensor: Nr:Datum:Temp:Abs-Feuchte:Windchill:Wind:
Aussen-T/F 76 14-10-2014 00:00:00 12.54495 C 10.49 g/m*3 12.54 C 0.69443 km/h
77 15-10-2014 00:00:00 11.65639 C 9.95 g/m*3 11.66 C 1.30827 km/h
78 16-10-2014 00:00:00 14.02682 C 11.48 g/m*3 14.03 C 1.30591 km/h
79 17-10-2014 00:00:00 14.05977 C 11.35 g/m*3 14.06 C 2.25785 km/h
80 18-10-2014 00:00:00 12.49887 C 10.74 g/m*3 12.5 C 0.15094 km/h
81 19-10-2014 00:00:00 15.09722 C 11.96 g/m*3 15.1 C 4.15972 km/h
82 20-10-2014 00:00:00 15.06015 C 10.81 g/m*3 15.06 C 3.74023 km/h
83 21-10-2014 00:00:00 11.78491 C 8.95 g/m*3 11.78 C 9.22526 km/h
84 22-10-2014 00:00:00 8.88438 C 7.46 g/m*3 6.97 C 11.95208 km/h
85 23-10-2014 00:00:00 10.3816 C 8.47 g/m*3 10.38 C 2.97708 km/h
86 24-10-2014 00:00:00 10.59097 C 8.81 g/m*3 10.59 C 0.78993 km/h
87 25-10-2014 00:00:00 11.53056 C 9.78 g/m*3 11.53 C 1.85972 km/h
88 26-10-2014 00:00:00 11.35625 C 9.78 g/m*3 11.36 C 0.49444 km/h
89 27-10-2014 00:00:00 9.22813 C 8.6 g/m*3 9.23 C 1.15104 km/h
90 28-10-2014 00:00:00 7.93681 C 7.28 g/m*3 7.94 C 2.42257 km/h
91 29-10-2014 00:00:00 9.50556 C 8.33 g/m*3 9.51 C 1.58542 km/h
92 30-10-2014 00:00:00 12.10625 C 10.39 g/m*3 12.11 C 0.08333 km/h
93 31-10-2014 00:00:00 12.05903 C 10.38 g/m*3 12.06 C 0.10556 km/h
94 01-11-2014 00:00:00 10.92674 C 9.79 g/m*3 10.93 C 0.10556 km/h
95 02-11-2014 00:00:00 11.24448 C 9.89 g/m*3 11.24 C 0.34733 km/h
96 03-11-2014 00:00:00 13.84028 C 10.77 g/m*3 13.84 C 3.79201 km/h
97 04-11-2014 00:00:00 11.22049 C 9.8 g/m*3 11.22 C 1.27153 km/h
98 05-11-2014 00:00:00 9.33229 C 8.58 g/m*3 9.33 C 1.61389 km/h
99 06-11-2014 00:00:00 6.59514 C 6.99 g/m*3 6.6 C 1.97014 km/h
100 07-11-2014 00:00:00 5.60208 C 6.7 g/m*3 5.6 C 1.42326 km/h
Sensor: Nr:Datum:Temp:Abs-Feuchte:Windchill:Wind:
Aussen-T/F 101 08-11-2014 00:00:00 8.8941 C 8.01 g/m*3 8.89 C 2.15833 km/h
102 09-11-2014 00:00:00 6.62257 C 7.32 g/m*3 6.62 C 0.41111 km/h
103 10-11-2014 00:00:00 8.76389 C 8.37 g/m*3 8.76 C 0.73333 km/h
104 11-11-2014 00:00:00 8.47553 C 8.1 g/m*3 8.48 C 1.41135 km/h
105 12-11-2014 00:00:00 9.50104 C 8.67 g/m*3 9.5 C 0.42778 km/h
106 13-11-2014 00:00:00 9.66736 C 8.89 g/m*3 9.67 C 1.50417 km/h
107 14-11-2014 00:00:00 10.60174 C 8.79 g/m*3 10.6 C 2.44688 km/h
108 15-11-2014 00:00:00 9.75938 C 8.75 g/m*3 9.76 C 1.73472 km/h
109 16-11-2014 00:00:00 8.75674 C 8.46 g/m*3 8.76 C 0.54468 km/h
110 17-11-2014 00:00:00 8.71146 C 8.45 g/m*3 8.71 C 1.41667 km/h
111 18-11-2014 00:00:00 8.62491 C 8.33 g/m*3 8.62 C 0.74021 km/h
112 19-11-2014 00:00:00 8.07465 C 7.97 g/m*3 8.07 C 0.95 km/h
113 20-11-2014 00:00:00 6.45486 C 7.07 g/m*3 6.45 C 1.16215 km/h
114 21-11-2014 00:00:00 5.36458 C 6.62 g/m*3 5.36 C 2.12778 km/h
115 22-11-2014 00:00:00 5.83576 C 6.88 g/m*3 5.84 C 1.56736 km/h
116 23-11-2014 00:00:00 6.30104 C 7.18 g/m*3 6.3 C 1.04549 km/h
117 24-11-2014 00:00:00 7.36679 C 7.51 g/m*3 7.37 C 2.53875 km/h
118 25-11-2014 00:00:00 3.04781 C 5.83 g/m*3 3.05 C 1.32669 km/h
119 26-11-2014 00:00:00 5.29848 C 6.22 g/m*3 5.3 C 1.90985 km/h
120 27-11-2014 00:00:00 5.85447 C 6.68 g/m*3 5.85 C 0.76576 km/h
121 28-11-2014 00:00:00 5.42203 C 6.42 g/m*3 5.42 C 2.77881 km/h
122 29-11-2014 00:00:00 4.46596 C 5.86 g/m*3 4.47 C 3.27684 km/h
123 30-11-2014 00:00:00 3.88993 C 5.8 g/m*3 3.89 C 2.0684 km/h
124 01-12-2014 00:00:00 3.33299 C 5.54 g/m*3 3.33 C 4.97847 km/h
125 02-12-2014 00:00:00 1.63731 C 4.95 g/m*3 1.64 C 1.81769 km/h
Sensor: Nr:Datum:Temp:Abs-Feuchte:Windchill:Wind:
Aussen-T/F 126 03-12-2014 00:00:00 1.74095 C 5.13 g/m*3 1.74 C 0.64828 km/h
127 04-12-2014 00:00:00 2.32917 C 5.27 g/m*3 2.33 C 0.57778 km/h
128 05-12-2014 00:00:00 4.15278 C 5.96 g/m*3 4.15 C 1.1 km/h
129 06-12-2014 00:00:00 4.51389 C 6.25 g/m*3 4.51 C 1.02222 km/h
130 07-12-2014 00:00:00 4.32049 C 5.99 g/m*3 2.62 C 6.99236 km/h
131 08-12-2014 00:00:00 3.10625 C 5.58 g/m*3 3.11 C 4.70972 km/h
132 09-12-2014 00:00:00 2.57569 C 5.57 g/m*3 2.58 C 1.39549 km/h
133 10-12-2014 00:00:00 4.42118 C 5.88 g/m*3 2.4 C 8.19653 km/h
134 11-12-2014 00:00:00 6.26736 C 6.63 g/m*3 3.73 C 12.32882 km/h
135 12-12-2014 00:00:00 9.07951 C 7.61 g/m*3 6.46 C 17.66285 km/h
136 13-12-2014 00:00:00 4.45625 C 6.32 g/m*3 4.46 C 1.54028 km/h
137 14-12-2014 00:00:00 2.59063 C 5.59 g/m*3 2.59 C 1.16667 km/h
138 15-12-2014 00:00:00 3.42986 C 5.74 g/m*3 3.43 C 4.72847 km/h
139 16-12-2014 00:00:00 6.12049 C 6.72 g/m*3 6.12 C 4.44201 km/h
140 17-12-2014 00:00:00 6.08021 C 6.74 g/m*3 4.16 C 9.02778 km/h
141 18-12-2014 00:00:00 11.91597 C 9.57 g/m*3 11.92 C 11.55764 km/h
142 19-12-2014 00:00:00 10.45243 C 8.4 g/m*3 8.16 C 17.81979 km/h
143 20-12-2014 00:00:00 5.90764 C 6.17 g/m*3 3.42 C 11.65868 km/h
144 21-12-2014 00:00:00 6.41042 C 6.57 g/m*3 4.33 C 10.07639 km/h
145 22-12-2014 00:00:00 8.375 C 7.41 g/m*3 5.47 C 18.66424 km/h
146 23-12-2014 00:00:00 10.04444 C 8.07 g/m*3 8.35 C 12.13444 km/h
147 24-12-2014 00:00:00 8.3214 C 7.27 g/m*3 5.8 C 15.37439 km/h
148 25-12-2014 00:00:00 5.2875 C 5.93 g/m*3 3.5 C 7.90134 km/h
149 26-12-2014 00:00:00 2.31469 C 5.51 g/m*3 2.31 C 0.73846 km/h
150 27-12-2014 00:00:00 1.46649 C 5.08 g/m*3 -0.05 C 5.27487 km/h
Sensor: Nr:Datum:Temp:Abs-Feuchte:Windchill:Wind:
Aussen-T/F 151 28-12-2014 00:00:00 -3.09591 C 3.12 g/m*3 -5.63 C 6.10864 km/h
152 29-12-2014 00:00:00 -0.46157 C 4.21 g/m*3 -2.74 C 6.45746 km/h
153 30-12-2014 00:00:00 2.6765 C 5.38 g/m*3 2.68 C 2.70656 km/h
154 31-12-2014 00:00:00 2.46053 C 5.38 g/m*3 2.46 C 3.36711 km/h
155 01-01-2015 00:00:00 1.89397 C 5.32 g/m*3 1.89 C 1.90517 km/h
156 02-01-2015 00:00:00 3.6411 C 5.53 g/m*3 -0.26 C 17.13767 km/h
157 03-01-2015 00:00:00 1.94125 C 5.24 g/m*3 1.94 C 4.05563 km/h
158 04-01-2015 00:00:00 2.94172 C 5.55 g/m*3 2.94 C 4.26258 km/h
159 05-01-2015 00:00:00 -0.02447 C 4.6 g/m*3 -0.02 C 2.20106 km/h
160 06-01-2015 00:00:00 0.48846 C 4.64 g/m*3 -2.1 C 7.80577 km/h
161 07-01-2015 00:00:00 2.52604 C 5.32 g/m*3 1.03 C 5.60302 km/h
162 08-01-2015 00:00:00 6.62222 C 7.01 g/m*3 4.67 C 9.65694 km/h
163 09-01-2015 00:00:00 9.27879 C 7.71 g/m*3 6.64 C 18.31742 km/h
164 10-01-2015 00:00:00 13.56872 C 9.75 g/m*3 13.57 C 20.23128 km/h
165 11-01-2015 00:00:00 5.45068 C 5.34 g/m*3 2.3 C 15.025 km/h
166 12-01-2015 00:00:00 6.91962 C 6.43 g/m*3 4.05 C 15.49623 km/h
167 13-01-2015 00:00:00 10.09231 C 7.13 g/m*3 8 C 15.25385 km/h
168 14-01-2015 00:00:00 5.9911 C 6.14 g/m*3 3.38 C 12.45466 km/h
169 15-01-2015 00:00:00 10.14352 C 7.22 g/m*3 7.78 C 17.71852 km/h
170 16-01-2015 00:00:00 6.66424 C 6.7 g/m*3 6.66 C 2.96111 km/h
171 17-01-2015 00:00:00 3.35174 C 5.57 g/m*3 3.35 C 3.18576 km/h
172 18-01-2015 00:00:00 1.91111 C 4.67 g/m*3 1.91 C 3.82014 km/h
173 19-01-2015 00:00:00 0.89028 C 4.6 g/m*3 0.89 C 2.03229 km/h
174 20-01-2015 00:00:00 0.86285 C 4.67 g/m*3 0.86 C 1.33021 km/h
175 21-01-2015 00:00:00 -0.0414 C 4.29 g/m*3 -0.04 C 1.65158 km/h
Sensor: Nr:Datum:Temp:Abs-Feuchte:Windchill:Wind:
Aussen-T/F 176 22-01-2015 00:00:00 1.45625 C 4.54 g/m*3 1.46 C 3.13889 km/h
177 23-01-2015 00:00:00 1.33299 C 4.76 g/m*3 1.33 C 2.80208 km/h
178 24-01-2015 00:00:00 1.04056 C 4.77 g/m*3 -0.73 C 5.74337 km/h
179 25-01-2015 00:00:00 2.19444 C 5.31 g/m*3 2.19 C 4.22049 km/h
180 26-01-2015 00:00:00 3.05694 C 5.67 g/m*3 0.91 C 7.78264 km/h
181 27-01-2015 00:00:00 3.85208 C 5.9 g/m*3 3.85 C 4.30729 km/h
182 28-01-2015 00:00:00 4.1184 C 5.82 g/m*3 2.1 C 8.01285 km/h
183 29-01-2015 00:00:00 3.03715 C 5.26 g/m*3 0.69 C 8.50625 km/h
184 30-01-2015 00:00:00 1.92569 C 5 g/m*3 0.2 C 5.97153 km/h
185 31-01-2015 00:00:00 2.07143 C 4.89 g/m*3 -0.34 C 8.10635 km/h
186 01-02-2015 00:00:00 2.04274 C 5.19 g/m*3 2.04 C 4.15726 km/h
187 02-02-2015 00:00:00 2.35794 C 5.07 g/m*3 0.46 C 6.64881 km/h
188 03-02-2015 00:00:00 0.88769 C 4.67 g/m*3 0.89 C 1.89744 km/h
189 04-02-2015 00:00:00 0.04848 C 4.23 g/m*3 0.05 C 4.45152 km/h
190 05-02-2015 00:00:00 -1.86778 C 3.56 g/m*3 -4.4 C 6.55111 km/h
191 06-02-2015 00:00:00 0.42153 C 3.48 g/m*3 -2.87 C 10.225 km/h
192 07-02-2015 00:00:00 -0.6316 C 3.75 g/m*3 -0.63 C 4.67222 km/h
193 08-02-2015 00:00:00 3.19444 C 4.92 g/m*3 0.43 C 10.28889 km/h
194 09-02-2015 00:00:00 4.06597 C 5.81 g/m*3 4.07 C 4.70139 km/h
195 10-02-2015 00:00:00 4.96528 C 6.22 g/m*3 4.97 C 2.52674 km/h
196 11-02-2015 00:00:00 3.82917 C 5.48 g/m*3 3.83 C 2.88576 km/h
197 12-02-2015 00:00:00 2.75556 C 5.23 g/m*3 2.76 C 2.66979 km/h
198 13-02-2015 00:00:00 2.27396 C 5.05 g/m*3 2.27 C 3.31458 km/h
199 14-02-2015 00:00:00 3.73438 C 5.41 g/m*3 3.73 C 4.48993 km/h
200 15-02-2015 00:00:00 1.72778 C 4.87 g/m*3 1.73 C 2.99688 km/h
Sensor: Nr:Datum:Temp:Abs-Feuchte:Windchill:Wind:
Aussen-T/F 201 16-02-2015 00:00:00 1.82744 C 4.86 g/m*3 1.83 C 2.50253 km/h
202 17-02-2015 00:00:00 3.31146 C 5.36 g/m*3 3.31 C 2.30903 km/h
203 18-02-2015 00:00:00 4.09479 C 5.7 g/m*3 4.09 C 1.95556 km/h
204 19-02-2015 00:00:00 0.94861 C 4.56 g/m*3 0.95 C 3.9875 km/h
205 20-02-2015 00:00:00 6.96389 C 6.01 g/m*3 6.02 C 5.88299 km/h
206 21-02-2015 00:00:00 5.27535 C 5.92 g/m*3 4.35 C 5.1316 km/h
207 22-02-2015 00:00:00 3.72083 C 5.16 g/m*3 3.72 C 3.02569 km/h
208 23-02-2015 00:00:00 3.46944 C 5.46 g/m*3 3.47 C 3.4316 km/h
209 24-02-2015 00:00:00 4.88611 C 5.73 g/m*3 2.69 C 9.24757 km/h
210 25-02-2015 00:00:00 4.28403 C 5.77 g/m*3 4.28 C 4.60903 km/h
211 26-02-2015 00:00:00 6.06354 C 6.54 g/m*3 6.06 C 2.2059 km/h
212 27-02-2015 00:00:00 5.01736 C 6.24 g/m*3 3.98 C 5.31319 km/h
213 28-02-2015 00:00:00 2.37187 C 4.89 g/m*3 2.37 C 4.01875 km/h
214 01-03-2015 00:00:00 7.71493 C 6.56 g/m*3 6.38 C 7.74549 km/h
215 02-03-2015 00:00:00 6.14653 C 5.83 g/m*3 3.74 C 11.49028 km/h
216 03-03-2015 00:00:00 5.52812 C 5.51 g/m*3 2.97 C 11.61563 km/h
217 04-03-2015 00:00:00 4.51771 C 5.45 g/m*3 2.36 C 8.80347 km/h
218 05-03-2015 00:00:00 5.08681 C 5.68 g/m*3 3.83 C 5.97743 km/h
219 06-03-2015 00:00:00 4.14931 C 5.4 g/m*3 4.15 C 2.11424 km/h
220 07-03-2015 00:00:00 4.96007 C 5.52 g/m*3 4.96 C 2.44757 km/h
221 08-03-2015 00:00:00 6.05625 C 6.05 g/m*3 6.06 C 1.36181 km/h
222 09-03-2015 00:00:00 7.81354 C 6.91 g/m*3 7.81 C 2.38021 km/h
223 10-03-2015 00:00:00 5.56319 C 6.83 g/m*3 5.56 C 0.71111 km/h
224 11-03-2015 00:00:00 4.39549 C 5.7 g/m*3 4.4 C 1.94618 km/h
225 12-03-2015 00:00:00 3.92222 C 5.22 g/m*3 3.92 C 2.76319 km/h
Sensor: Nr:Datum:Temp:Abs-Feuchte:Windchill:Wind:
Aussen-T/F 226 13-03-2015 00:00:00 4.14514 C 4.91 g/m*3 4.15 C 4.83576 km/h
227 14-03-2015 00:00:00 4.55451 C 5.45 g/m*3 4.55 C 3.46875 km/h
228 15-03-2015 00:00:00 4.61042 C 5.92 g/m*3 4.61 C 2.91944 km/h
229 16-03-2015 00:00:00 4.68368 C 5.77 g/m*3 4.68 C 2.40382 km/h
230 17-03-2015 00:00:00 7.26632 C 6.46 g/m*3 7.27 C 2.26007 km/h
231 18-03-2015 00:00:00 9.08924 C 7.15 g/m*3 9.09 C 3.88542 km/h
232 19-03-2015 00:00:00 7.62431 C 7.42 g/m*3 6.41 C 7.21389 km/h
233 20-03-2015 00:00:00 8.07465 C 6.84 g/m*3 8.07 C 3.93021 km/h
234 21-03-2015 00:00:00 5.69201 C 6.4 g/m*3 5.69 C 3.88542 km/h
235 22-03-2015 00:00:00 5.19792 C 5.68 g/m*3 3.57 C 7.23924 km/h
236 23-03-2015 00:00:00 3.85521 C 5.3 g/m*3 3.86 C 2.90382 km/h
237 24-03-2015 00:00:00 6.94167 C 6.26 g/m*3 6.94 C 2.91528 km/h
238 25-03-2015 00:00:00 7.68056 C 6.81 g/m*3 6.58 C 6.80903 km/h
239 26-03-2015 00:00:00 7.17257 C 6.06 g/m*3 5.64 C 8.2059 km/h
240 27-03-2015 00:00:00 7.64965 C 6.05 g/m*3 5.98 C 9.23854 km/h
241 28-03-2015 00:00:00 8.51667 C 6.75 g/m*3 7.35 C 7.60521 km/h
242 29-03-2015 00:00:00 11.63659 C 8.72 g/m*3 11.64 C 18.53152 km/h
243 30-03-2015 00:00:00 8.21597 C 5.97 g/m*3 6.12 C 12.19757 km/h
244 31-03-2015 00:00:00 10.06181 C 7 g/m*3 7.3 C 21.68507 km/h
245 01-04-2015 00:00:00 6.38924 C 5.24 g/m*3 3.35 C 15.81111 km/h
246 02-04-2015 00:00:00 6.45868 C 5.51 g/m*3 3.6 C 14.65 km/h
247 03-04-2015 00:00:00 5.87951 C 5.14 g/m*3 5.88 C 4.05417 km/h
248 04-04-2015 00:00:00 6.24896 C 5.67 g/m*3 5.11 C 6.17118 km/h
249 05-04-2015 00:00:00 5.21354 C 4.8 g/m*3 5.21 C 4.42118 km/h
250 06-04-2015 00:00:00 5.33542 C 5.34 g/m*3 4.44 C 5.05069 km/h
Sensor: Nr:Datum:Temp:Abs-Feuchte:Windchill:Wind:
Aussen-T/F 251 07-04-2015 00:00:00 5.98646 C 5.54 g/m*3 5.99 C 2.74132 km/h
252 08-04-2015 00:00:00 8.43776 C 6.6 g/m*3 8.44 C 3.39685 km/h
253 09-04-2015 00:00:00 11.19653 C 7.82 g/m*3 11.2 C 2.82014 km/h
254 10-04-2015 00:00:00 13.22708 C 7.82 g/m*3 13.23 C 2.98611 km/h
255 11-04-2015 00:00:00 12.37118 C 7.71 g/m*3 12.37 C 9.77674 km/h
256 12-04-2015 00:00:00 11.34444 C 7.19 g/m*3 11.34 C 5.34861 km/h
257 13-04-2015 00:00:00 11.50104 C 7.22 g/m*3 11.5 C 7.44931 km/h
258 14-04-2015 00:00:00 13.37778 C 7.78 g/m*3 13.38 C 6.35625 km/h
259 15-04-2015 00:00:00 16.43472 C 8.89 g/m*3 16.43 C 5.41354 km/h
260 16-04-2015 00:00:00 15.04757 C 8.96 g/m*3 15.05 C 3.66319 km/h
261 17-04-2015 00:00:00 11.41736 C 6.97 g/m*3 11.42 C 7.43646 km/h
262 18-04-2015 00:00:00 8.60486 C 5.59 g/m*3 8.6 C 4.73021 km/h
263 19-04-2015 00:00:00 9.50903 C 5.72 g/m*3 9.51 C 4.27813 km/h
264 20-04-2015 00:00:00 12.20312 C 6.58 g/m*3 12.2 C 4.43368 km/h
265 21-04-2015 00:00:00 13.69549 C 7.17 g/m*3 13.7 C 3.88438 km/h
266 22-04-2015 00:00:00 10.77465 C 6.86 g/m*3 10.03 C 7.45 km/h
267 23-04-2015 00:00:00 10.84062 C 6.95 g/m*3 10.84 C 2.92813 km/h
268 24-04-2015 00:00:00 13.43403 C 7.3 g/m*3 13.43 C 4.69097 km/h
269 25-04-2015 00:00:00 12.95486 C 9.17 g/m*3 12.95 C 4.39583 km/h
270 26-04-2015 00:00:00 15.34444 C 10.37 g/m*3 15.34 C 5.64549 km/h
271 27-04-2015 00:00:00 10.42014 C 9.13 g/m*3 10.42 C 4.14514 km/h
272 28-04-2015 00:00:00 9.15382 C 6.56 g/m*3 8.76 C 5.09965 km/h
273 29-04-2015 00:00:00 8.3059 C 6.18 g/m*3 8.31 C 2.24132 km/h
274 30-04-2015 00:00:00 9.85764 C 7.53 g/m*3 9.02 C 7.16875 km/h
275 01-05-2015 00:00:00 8.17979 C 6.92 g/m*3 8.18 C 2.25331 km/h
Sensor: Nr:Datum:Temp:Abs-Feuchte:Windchill:Wind:
Aussen-T/F 276 02-05-2015 00:00:00 9.88958 C 7.29 g/m*3 9.89 C 1.96319 km/h
277 03-05-2015 00:00:00 13.80469 C 10.72 g/m*3 13.8 C 2.10866 km/h
278 04-05-2015 00:00:00 16.61875 C 11.47 g/m*3 16.62 C 4.02569 km/h
279 05-05-2015 00:00:00 18.45035 C 11.75 g/m*3 18.45 C 8.31319 km/h
280 06-05-2015 00:00:00 13.3566 C 8.05 g/m*3 13.36 C 8.00278 km/h
281 07-05-2015 00:00:00 13.35764 C 7.64 g/m*3 13.36 C 7.01944 km/h
282 08-05-2015 00:00:00 14.46632 C 8.54 g/m*3 14.47 C 2.17917 km/h
283 09-05-2015 00:00:00 15.2441 C 9.88 g/m*3 15.24 C 7.66458 km/h
284 10-05-2015 00:00:00 14.78229 C 9.51 g/m*3 14.78 C 3.62014 km/h
285 11-05-2015 00:00:00 17.12812 C 10.77 g/m*3 17.13 C 2.08542 km/h
286 12-05-2015 00:00:00 18.0309 C 11.48 g/m*3 18.03 C 5.18785 km/h
287 13-05-2015 00:00:00 14.45208 C 8.38 g/m*3 14.45 C 2.43125 km/h
288 14-05-2015 00:00:00 14.14351 C 8.85 g/m*3 14.14 C 2.80386 km/h
289 15-05-2015 00:00:00 15.02882 C 9.97 g/m*3 15.03 C 6.18542 km/h
290 16-05-2015 00:00:00 12.01528 C 8.4 g/m*3 12.02 C 4.44549 km/h
291 17-05-2015 00:00:00 14.18924 C 8.59 g/m*3 14.19 C 2.83299 km/h
292 18-05-2015 00:00:00 15.27535 C 8.56 g/m*3 15.28 C 6.43993 km/h
293 19-05-2015 00:00:00 13.64941 C 7.16 g/m*3 13.65 C 9.52213 km/h
294 20-05-2015 00:00:00 11.71144 C 7.38 g/m*3 11.71 C 4.75166 km/h
295 21-05-2015 00:00:00 11.60764 C 7.25 g/m*3 11.61 C 5.12847 km/h
296 22-05-2015 00:00:00 15.74722 C 8.2 g/m*3 15.75 C 2.84028 km/h
297 23-05-2015 00:00:00 15.85278 C 9.6 g/m*3 15.85 C 3.09653 km/h
298 24-05-2015 00:00:00 17.02887 C 10.98 g/m*3 17.03 C 3.34789 km/h
299 25-05-2015 00:00:00 13.82968 C 10.51 g/m*3 13.83 C 2.20645 km/h
300 26-05-2015 00:00:00 11.87604 C 8 g/m*3 11.88 C 4.67257 km/h
Sensor: Nr:Datum:Temp:Abs-Feuchte:Windchill:Wind:
Aussen-T/F 301 27-05-2015 00:00:00 11.63958 C 7.33 g/m*3 11.64 C 2.82326 km/h
302 28-05-2015 00:00:00 14.21944 C 8.5 g/m*3 14.22 C 5.00625 km/h
303 29-05-2015 00:00:00 13.27367 C 8.77 g/m*3 13.27 C 5.1516 km/h
304 30-05-2015 00:00:00 12.66319 C 7.91 g/m*3 12.66 C 7.02986 km/h
305 31-05-2015 00:00:00 14.50903 C 9.14 g/m*3 14.51 C 8.0316 km/h
306 01-06-2015 00:00:00 14.86667 C 10.09 g/m*3 14.87 C 4.53472 km/h
307 02-06-2015 00:00:00 16.57639 C 10.34 g/m*3 16.58 C 6.47049 km/h
308 03-06-2015 00:00:00 17.74965 C 10.72 g/m*3 17.75 C 5.28993 km/h
309 04-06-2015 00:00:00 18.54896 C 10.38 g/m*3 18.55 C 3.23854 km/h
310 05-06-2015 00:00:00 22.1191 C 13.26 g/m*3 22.12 C 2.38889 km/h
311 06-06-2015 00:00:00 19.94028 C 13.78 g/m*3 19.94 C 5.78611 km/h
312 07-06-2015 00:00:00 18.04306 C 9.22 g/m*3 18.04 C 5.15938 km/h
313 08-06-2015 00:00:00 16.17222 C 8.78 g/m*3 16.17 C 7.89479 km/h
314 09-06-2015 00:00:00 14.94792 C 7.98 g/m*3 14.95 C 5.97396 km/h
315 10-06-2015 00:00:00 17.10208 C 9.63 g/m*3 17.1 C 3.88889 km/h
316 11-06-2015 00:00:00 19.95895 C 10.65 g/m*3 19.96 C 4.9414 km/h
317 12-06-2015 00:00:00 19.48699 C 13.09 g/m*3 19.49 C 2.45576 km/h
318 13-06-2015 00:00:00 18.63958 C 13.62 g/m*3 18.64 C 3.19896 km/h
319 14-06-2015 00:00:00 19.07708 C 11.26 g/m*3 19.08 C 3.61215 km/h
320 15-06-2015 00:00:00 17.59271 C 11.21 g/m*3 17.59 C 5.50208 km/h
321 16-06-2015 00:00:00 15.68924 C 8.44 g/m*3 15.69 C 6.04444 km/h
322 17-06-2015 00:00:00 15.5816 C 8.72 g/m*3 15.58 C 2.76319 km/h
323 18-06-2015 00:00:00 17.15625 C 10.98 g/m*3 17.16 C 7.23438 km/h
324 19-06-2015 00:00:00 12.7559 C 9.22 g/m*3 12.76 C 3.45729 km/h
325 20-06-2015 00:00:00 13.05547 C 9.33 g/m*3 13.06 C 4.88672 km/h
Sensor: Nr:Datum:Temp:Abs-Feuchte:Windchill:Wind:
Aussen-T/F 326 21-06-2015 00:00:00 15.43396 C 11.17 g/m*3 15.43 C 4.89291 km/h
327 22-06-2015 00:00:00 13.19855 C 10.09 g/m*3 13.2 C 5.84073 km/h
328 23-06-2015 00:00:00 11.71206 C 9.65 g/m*3 11.71 C 3.60284 km/h
329 24-06-2015 00:00:00 14.96215 C 10.37 g/m*3 14.96 C 3.02361 km/h
330 25-06-2015 00:00:00 17.94306 C 11.59 g/m*3 17.94 C 2.5625 km/h
331 26-06-2015 00:00:00 19.40139 C 13.06 g/m*3 19.4 C 2.43542 km/h
332 27-06-2015 00:00:00 20.26461 C 13.16 g/m*3 20.26 C 6.35679 km/h
333 28-06-2015 00:00:00 18.39741 C 11.45 g/m*3 18.4 C 1.70431 km/h
334 29-06-2015 00:00:00 23.63875 C 13.16 g/m*3 23.64 C 6.13688 km/h
335 30-06-2015 00:00:00 21.94847 C 12.24 g/m*3 21.95 C 2.6229 km/h
336 01-07-2015 00:00:00 24.13993 C 13.88 g/m*3 24.14 C 2.98237 km/h
337 02-07-2015 00:00:00 26.83474 C 16.53 g/m*3 26.83 C 2.73684 km/h
338 03-07-2015 00:00:00 28.2408 C 18.03 g/m*3 28.24 C 4.0004 km/h
339 04-07-2015 00:00:00 27.77951 C 18.22 g/m*3 27.78 C 2.66875 km/h
340 05-07-2015 00:00:00 26.75417 C 16.35 g/m*3 26.75 C 6.34028 km/h
341 06-07-2015 00:00:00 23.89674 C 11.72 g/m*3 23.9 C 5.56087 km/h
342 07-07-2015 00:00:00 23.4251 C 13.52 g/m*3 23.43 C 4.52869 km/h
343 08-07-2015 00:00:00 17.62465 C 10.77 g/m*3 17.62 C 12.0309 km/h
344 09-07-2015 00:00:00 16.50669 C 9.6 g/m*3 16.51 C 9.47606 km/h
345 10-07-2015 00:00:00 17.02947 C 8.35 g/m*3 17.03 C 3.11789 km/h
346 11-07-2015 00:00:00 21.24132 C 10.2 g/m*3 21.24 C 3.87326 km/h
347 12-07-2015 00:00:00 19.0157 C 11.63 g/m*3 19.02 C 4.59752 km/h
348 13-07-2015 00:00:00 17.93777 C 13.02 g/m*3 17.94 C 6.44309 km/h
349 14-07-2015 00:00:00 21.06476 C 13.71 g/m*3 21.06 C 8.263 km/h
350 15-07-2015 00:00:00 21.59368 C 14.37 g/m*3 21.59 C 3.19509 km/h
Sensor: Nr:Datum:Temp:Abs-Feuchte:Windchill:Wind:
Aussen-T/F 351 16-07-2015 00:00:00 24.00382 C 15.6 g/m*3 24 C 2.825 km/h
352 17-07-2015 00:00:00 28.34301 C 13.92 g/m*3 28.34 C 6.7625 km/h
353 18-07-2015 00:00:00 23.63602 C 13.33 g/m*3 23.64 C 4.35364 km/h
354 19-07-2015 00:00:00 21.84756 C 15 g/m*3 21.85 C 9.45915 km/h
355 20-07-2015 00:00:00 22.02667 C 17.14 g/m*3 22.03 C 2.74111 km/h
356 21-07-2015 00:00:00 26.21048 C 17.06 g/m*3 26.21 C 7.56905 km/h
357 22-07-2015 00:00:00 23.3275 C 15.6 g/m*3 23.33 C 4.95786 km/h
358 23-07-2015 00:00:00 20.60312 C 11.63 g/m*3 20.6 C 3.97951 km/h
359 24-07-2015 00:00:00 21.45543 C 13.09 g/m*3 21.46 C 2.75019 km/h
360 25-07-2015 00:00:00 17.38849 C 11.54 g/m*3 17.39 C 14.05833 km/h
361 26-07-2015 00:00:00 15.82244 C 9.7 g/m*3 15.82 C 4.18346 km/h
362 27-07-2015 00:00:00 17.63472 C 12.21 g/m*3 17.63 C 9.7966 km/h
363 28-07-2015 00:00:00 17.16294 C 9.35 g/m*3 17.16 C 10.46993 km/h
364 29-07-2015 00:00:00 17.78846 C 8.49 g/m*3 17.79 C 11.15337 km/h
365 30-07-2015 00:00:00 14.2708 C 9.1 g/m*3 14.27 C 4.6504 km/h

Maximal/Minimal-Werte vom 31.07.2014 - 30.07.2015

Sensor Min Max Avg
Temp
(Aussen-T/F)
-5.3 °C
28-12-2014  22:40:00
38.6 °C
04-07-2015  16:30:00
11.25 °C
Abs-Feuchte
(Aussen-T/F)
3.12 g/m*3
28-12-2014  00:00:00
18.22 g/m*3
04-07-2015  00:00:00
8.79 g/m*3
Windchill
(Aussen-T/F)
-5.63 C
28-12-2014  00:00:00
28.34 C
17-07-2015  00:00:00
10.81 C

Die Daten stammen von einer Davis Vantage Pro 2 Wetter-Station und werden unter Linux mit der Software wview2wettercgi und aufbereitet. Alle Angaben erfolgen ohne Gewähr für ihre Vollständigkeit oder Richtigkeit.
Kontakt: Rainer Krienke krienke@uni-koblenz.de . Meine Webseiten an der Uni Koblenz oder privat.
Version: $Revision: 0.78 $